createdAt,value
2023-06-03T00:02:33.274Z,16.44
2023-06-03T00:05:35.922Z,16.48
2023-06-03T00:08:38.391Z,16.43
2023-06-03T00:11:41.044Z,16.26
2023-06-03T00:14:43.522Z,16.17
2023-06-03T00:17:46.142Z,16.08
2023-06-03T00:20:49.131Z,16.03
2023-06-03T00:23:51.961Z,16.08
2023-06-03T00:26:54.569Z,16.08
2023-06-03T00:29:57.101Z,16.02
2023-06-03T00:32:59.857Z,15.93
2023-06-03T00:36:02.567Z,15.94
2023-06-03T00:39:05.055Z,15.96
2023-06-03T00:42:07.831Z,15.97
2023-06-03T00:45:11.011Z,15.93
2023-06-03T00:48:13.771Z,15.85
2023-06-03T00:51:16.801Z,15.84
2023-06-03T00:54:19.452Z,15.76
2023-06-03T00:57:23.688Z,15.68
2023-06-03T01:00:26.368Z,15.56
2023-06-03T01:03:29.071Z,15.56
2023-06-03T01:06:47.381Z,15.58
2023-06-03T01:10:08.435Z,15.54
2023-06-03T01:13:29.881Z,15.48
2023-06-03T01:16:35.921Z,15.42
2023-06-03T01:19:49.358Z,15.41
2023-06-03T01:22:57.771Z,15.42
2023-06-03T01:26:02.507Z,15.44
2023-06-03T01:29:05.057Z,15.38
2023-06-03T01:32:15.343Z,15.27
2023-06-03T01:35:19.405Z,15.19
2023-06-03T01:38:23.937Z,15.12
2023-06-03T01:41:33.296Z,15.10
2023-06-03T01:44:37.481Z,15.05
2023-06-03T01:47:40.194Z,15.04
2023-06-03T01:50:43.879Z,14.95
2023-06-03T01:53:48.908Z,14.91
2023-06-03T01:56:51.564Z,14.90
2023-06-03T01:59:54.286Z,14.90
2023-06-03T02:02:56.818Z,14.79
2023-06-03T02:05:59.388Z,14.64
2023-06-03T02:09:02.029Z,14.66
2023-06-03T02:12:04.982Z,14.63
2023-06-03T02:15:08.431Z,14.55
2023-06-03T02:18:11.396Z,14.54
2023-06-03T02:21:14.136Z,14.55
2023-06-03T02:24:17.338Z,14.61
2023-06-03T02:27:21.902Z,14.59
2023-06-03T02:30:26.078Z,14.51
2023-06-03T02:33:28.602Z,14.51
2023-06-03T02:36:31.513Z,14.48
2023-06-03T02:39:34.070Z,14.40
2023-06-03T02:42:38.479Z,14.38
2023-06-03T02:45:41.368Z,14.28
2023-06-03T02:48:43.827Z,14.31
2023-06-03T02:51:46.481Z,14.31
2023-06-03T02:54:49.384Z,14.28
2023-06-03T02:57:52.198Z,14.25
2023-06-03T03:00:54.910Z,14.28
2023-06-03T03:03:57.505Z,14.28
2023-06-03T03:07:00.202Z,14.30
2023-06-03T03:10:02.789Z,14.39
2023-06-03T03:13:07.221Z,14.41
2023-06-03T03:16:12.166Z,14.38
2023-06-03T03:19:16.997Z,14.35
2023-06-03T03:22:19.994Z,14.41
2023-06-03T03:25:22.782Z,14.49
2023-06-03T03:28:26.148Z,14.50
2023-06-03T03:31:33.985Z,14.55
2023-06-03T03:34:38.133Z,14.52
2023-06-03T03:37:42.385Z,14.43
2023-06-03T03:40:45.938Z,14.42
2023-06-03T03:43:51.274Z,14.42
2023-06-03T03:47:00.682Z,14.39
2023-06-03T03:50:03.889Z,14.41
2023-06-03T03:53:09.544Z,14.46
2023-06-03T03:56:18.318Z,14.45
2023-06-03T03:59:28.177Z,14.48
2023-06-03T04:02:34.841Z,14.57
2023-06-03T04:05:37.943Z,14.59
2023-06-03T04:08:40.475Z,14.66
2023-06-03T04:11:44.393Z,14.64
2023-06-03T04:14:51.522Z,14.70
2023-06-03T04:17:57.704Z,14.80
2023-06-03T04:21:01.013Z,14.88
2023-06-03T04:24:06.341Z,14.92
2023-06-03T04:27:09.567Z,14.95
2023-06-03T04:30:13.185Z,14.97
2023-06-03T04:33:15.811Z,14.99
2023-06-03T04:36:18.610Z,15.10
2023-06-03T04:39:21.184Z,15.27
2023-06-03T04:42:27.760Z,15.43
2023-06-03T04:45:33.235Z,15.51
2023-06-03T04:48:37.756Z,15.56
2023-06-03T04:51:41.924Z,15.64
2023-06-03T04:54:46.972Z,15.86
2023-06-03T04:57:54.244Z,15.81
2023-06-03T05:00:58.809Z,15.88
2023-06-03T05:04:04.002Z,16.04
2023-06-03T05:07:08.174Z,16.20
2023-06-03T05:10:11.505Z,16.36
2023-06-03T05:13:15.027Z,16.56
2023-06-03T05:16:18.716Z,16.83
2023-06-03T05:19:21.514Z,17.13
2023-06-03T05:22:25.372Z,17.24
2023-06-03T05:25:28.615Z,17.26
2023-06-03T05:28:31.352Z,17.40
2023-06-03T05:31:34.104Z,17.34
2023-06-03T05:34:36.744Z,17.41
2023-06-03T05:37:39.915Z,17.44
2023-06-03T05:40:43.078Z,17.37
2023-06-03T05:43:46.161Z,16.88
2023-06-03T05:46:49.504Z,16.83
2023-06-03T05:49:52.233Z,16.97
2023-06-03T05:52:56.580Z,16.89
2023-06-03T05:56:00.706Z,16.94
2023-06-03T05:59:05.847Z,16.63
2023-06-03T06:02:13.447Z,16.67
2023-06-03T06:05:16.560Z,16.65
2023-06-03T06:08:19.818Z,16.56
2023-06-03T06:11:22.862Z,16.61
2023-06-03T06:14:25.796Z,16.75
2023-06-03T06:17:28.551Z,16.67
2023-06-03T06:20:31.735Z,17.00
2023-06-03T06:23:34.526Z,17.03
2023-06-03T06:26:40.955Z,17.01
2023-06-03T06:29:44.329Z,17.20
2023-06-03T06:32:52.597Z,17.24
2023-06-03T06:36:50.847Z,17.26
2023-06-03T06:40:03.065Z,17.55
2023-06-03T06:43:22.454Z,17.35
2023-06-03T06:46:37.993Z,17.63
2023-06-03T06:49:41.784Z,17.99
2023-06-03T06:52:44.507Z,18.16
2023-06-03T06:55:57.094Z,18.19
2023-06-03T06:59:07.679Z,18.27
2023-06-03T07:02:11.846Z,18.20
2023-06-03T07:05:16.313Z,18.22
2023-06-03T07:08:23.646Z,18.23
2023-06-03T07:11:26.708Z,18.17
2023-06-03T07:14:33.460Z,18.16
2023-06-03T07:17:36.409Z,18.07
2023-06-03T07:20:44.647Z,18.04
2023-06-03T07:23:49.386Z,18.00
2023-06-03T07:26:52.778Z,18.18
2023-06-03T07:30:02.076Z,18.28
2023-06-03T07:33:09.442Z,18.26
2023-06-03T07:36:16.108Z,18.28
2023-06-03T07:39:22.202Z,18.16
2023-06-03T07:42:30.617Z,18.10
2023-06-03T07:45:41.606Z,18.03
2023-06-03T07:48:44.109Z,18.22
2023-06-03T07:51:50.474Z,18.28
2023-06-03T07:54:53.012Z,18.32
2023-06-03T07:57:55.664Z,18.27
2023-06-03T08:00:58.206Z,18.30
2023-06-03T08:04:01.240Z,18.52
2023-06-03T08:07:04.274Z,18.91
2023-06-03T08:10:16.765Z,18.94
2023-06-03T08:13:19.497Z,19.15
2023-06-03T08:16:22.322Z,19.30
2023-06-03T08:19:25.977Z,19.55
2023-06-03T08:22:46.732Z,19.47
2023-06-03T08:25:49.854Z,19.74
2023-06-03T08:28:52.359Z,19.76
2023-06-03T08:31:54.881Z,19.93
2023-06-03T08:34:57.343Z,19.91
2023-06-03T08:37:59.942Z,19.84
2023-06-03T08:41:03.770Z,19.36
2023-06-03T08:44:19.506Z,18.99
2023-06-03T08:47:32.818Z,18.96
2023-06-03T08:50:36.634Z,19.26
2023-06-03T08:53:46.974Z,19.39
2023-06-03T08:57:20.266Z,19.39
2023-06-03T09:00:25.421Z,19.63
2023-06-03T09:03:28.273Z,19.54
2023-06-03T09:06:31.474Z,19.67
2023-06-03T09:09:36.182Z,19.49
2023-06-03T09:12:39.336Z,19.76
2023-06-03T09:15:44.026Z,19.68
2023-06-03T09:18:48.746Z,19.83
2023-06-03T09:21:54.474Z,19.99
2023-06-03T09:24:57.983Z,20.08
2023-06-03T09:28:01.046Z,20.01
2023-06-03T09:31:06.089Z,20.09
2023-06-03T09:34:08.884Z,20.23
2023-06-03T09:37:11.413Z,20.35
2023-06-03T09:40:26.049Z,20.20
2023-06-03T09:43:28.596Z,20.47
2023-06-03T09:46:32.565Z,20.65
2023-06-03T09:49:49.709Z,20.58
2023-06-03T09:52:53.437Z,20.94
2023-06-03T09:55:55.952Z,21.04
2023-06-03T09:59:22.445Z,20.83
2023-06-03T10:02:26.407Z,20.67
2023-06-03T10:05:31.102Z,20.77
2023-06-03T10:08:33.731Z,21.01
2023-06-03T10:11:48.019Z,21.13
2023-06-03T10:14:51.688Z,20.97
2023-06-03T10:17:54.420Z,20.75
2023-06-03T10:20:56.976Z,20.35
2023-06-03T10:24:02.610Z,20.36
2023-06-03T10:27:06.213Z,20.81
2023-06-03T10:30:11.526Z,21.17
2023-06-03T10:33:16.658Z,21.45
2023-06-03T10:36:21.514Z,21.64
2023-06-03T10:39:27.636Z,21.81
2023-06-03T10:42:31.264Z,21.80
2023-06-03T10:45:33.935Z,21.98
2023-06-03T10:48:38.679Z,22.00
2023-06-03T10:51:46.026Z,21.81
2023-06-03T10:54:52.913Z,21.83
2023-06-03T10:58:19.891Z,22.26
2023-06-03T11:01:22.471Z,22.68
2023-06-03T11:04:26.751Z,22.21
2023-06-03T11:07:32.409Z,22.49
2023-06-03T11:10:37.786Z,22.54
2023-06-03T11:13:46.419Z,22.83
2023-06-03T11:16:57.862Z,22.85
2023-06-03T11:20:00.941Z,23.27
2023-06-03T11:23:03.989Z,23.47
2023-06-03T11:26:31.314Z,23.05
2023-06-03T11:29:52.812Z,23.76
2023-06-03T11:33:11.349Z,23.98
2023-06-03T11:36:47.712Z,24.19
2023-06-03T11:40:09.437Z,24.37
2023-06-03T11:43:13.333Z,24.69
2023-06-03T11:46:16.604Z,24.68
2023-06-03T11:49:21.884Z,24.30
2023-06-03T11:52:25.069Z,25.21
2023-06-03T11:55:29.945Z,25.53
2023-06-03T11:58:37.212Z,26.29
2023-06-03T12:01:58.148Z,26.43
2023-06-03T12:05:05.396Z,26.76
2023-06-03T12:08:07.983Z,26.83
2023-06-03T12:11:10.647Z,27.18
2023-06-03T12:14:34.034Z,27.15
2023-06-03T12:17:37.487Z,27.56
2023-06-03T12:20:40.482Z,27.14
2023-06-03T12:23:43.222Z,27.80
2023-06-03T12:26:45.864Z,28.23
2023-06-03T12:30:00.429Z,28.47
2023-06-03T12:33:03.014Z,29.28
2023-06-03T12:36:05.729Z,30.33
2023-06-03T12:39:08.382Z,30.42
2023-06-03T12:42:12.256Z,29.83
2023-06-03T12:45:24.719Z,29.53
2023-06-03T12:48:33.227Z,30.44
2023-06-03T12:51:35.847Z,29.57
2023-06-03T12:54:38.485Z,30.06
2023-06-03T12:57:43.348Z,30.28
2023-06-03T13:00:46.312Z,29.87
2023-06-03T13:03:49.395Z,29.69
2023-06-03T13:06:52.026Z,30.18
2023-06-03T13:09:57.535Z,31.18
2023-06-03T13:13:00.030Z,30.09
2023-06-03T13:16:03.021Z,30.09
2023-06-03T13:19:05.543Z,31.00
2023-06-03T13:22:09.002Z,31.21
2023-06-03T13:25:11.652Z,30.42
2023-06-03T13:28:14.320Z,30.74
2023-06-03T13:31:17.043Z,31.55
2023-06-03T13:34:19.560Z,31.03
2023-06-03T13:37:22.883Z,32.20
2023-06-03T13:40:25.811Z,31.96
2023-06-03T13:43:28.306Z,32.36
2023-06-03T13:46:30.942Z,31.73
2023-06-03T13:49:33.533Z,31.25
2023-06-03T13:52:36.191Z,31.64
2023-06-03T13:55:38.815Z,32.46
2023-06-03T13:58:41.430Z,32.58
2023-06-03T14:01:44.137Z,32.93
2023-06-03T14:04:46.767Z,32.86
2023-06-03T14:07:52.418Z,33.11
2023-06-03T14:10:54.958Z,33.27
2023-06-03T14:13:57.524Z,31.63
2023-06-03T14:17:00.230Z,33.17
2023-06-03T14:20:03.872Z,33.81
2023-06-03T14:23:06.550Z,33.02
2023-06-03T14:26:09.021Z,31.34
2023-06-03T14:29:13.053Z,33.22
2023-06-03T14:32:15.804Z,32.91
2023-06-03T14:35:18.597Z,33.21
2023-06-03T14:38:22.061Z,32.11
2023-06-03T14:41:24.701Z,32.59
2023-06-03T14:44:27.342Z,32.18
2023-06-03T14:47:29.993Z,32.23
2023-06-03T14:50:34.173Z,32.50
2023-06-03T14:53:36.684Z,33.12
2023-06-03T14:56:39.211Z,32.97
2023-06-03T14:59:41.897Z,32.85
2023-06-03T15:02:44.640Z,33.32
2023-06-03T15:05:47.508Z,32.23
2023-06-03T15:08:50.084Z,32.70
2023-06-03T15:11:52.536Z,33.25
2023-06-03T15:14:55.040Z,33.69
2023-06-03T15:17:57.746Z,33.86
2023-06-03T15:21:00.552Z,33.31
2023-06-03T15:24:04.112Z,34.27
2023-06-03T15:27:07.542Z,34.42
2023-06-03T15:30:10.616Z,33.86
2023-06-03T15:33:13.108Z,33.22
2023-06-03T15:36:15.796Z,33.69
2023-06-03T15:39:18.318Z,33.56
2023-06-03T15:42:20.932Z,32.29
2023-06-03T15:45:24.241Z,32.26
2023-06-03T15:48:26.805Z,32.65
2023-06-03T15:51:29.371Z,32.88
2023-06-03T15:54:31.936Z,32.53
2023-06-03T15:57:34.510Z,32.76
2023-06-03T16:00:38.111Z,33.29
2023-06-03T16:03:42.213Z,33.26
2023-06-03T16:06:45.122Z,32.84
2023-06-03T16:09:47.763Z,32.67
2023-06-03T16:12:50.439Z,32.08
2023-06-03T16:15:53.770Z,32.98
2023-06-03T16:18:56.502Z,33.24
2023-06-03T16:22:01.380Z,33.18
2023-06-03T16:25:04.482Z,32.63
2023-06-03T16:28:06.990Z,32.78
2023-06-03T16:31:09.552Z,32.11
2023-06-03T16:34:12.031Z,33.01
2023-06-03T16:37:15.492Z,33.05
2023-06-03T16:40:18.069Z,32.43
2023-06-03T16:43:21.100Z,32.12
2023-06-03T16:46:23.823Z,32.05
2023-06-03T16:49:26.884Z,32.92
2023-06-03T16:52:29.466Z,32.60
2023-06-03T16:55:32.082Z,31.74
2023-06-03T16:58:34.684Z,31.29
2023-06-03T17:01:37.294Z,31.04
2023-06-03T17:04:40.870Z,30.53
2023-06-03T17:07:43.408Z,31.00
2023-06-03T17:10:45.972Z,31.49
2023-06-03T17:13:48.887Z,31.26
2023-06-03T17:16:51.495Z,31.28
2023-06-03T17:19:54.046Z,30.30
2023-06-03T17:22:56.861Z,30.26
2023-06-03T17:25:59.384Z,29.98
2023-06-03T17:29:03.371Z,30.69
2023-06-03T17:32:06.246Z,30.07
2023-06-03T17:35:09.495Z,29.73
2023-06-03T17:38:12.285Z,29.76
2023-06-03T17:41:15.002Z,29.01
2023-06-03T17:44:20.948Z,28.96
2023-06-03T17:47:23.649Z,28.24
2023-06-03T17:50:26.248Z,27.03
2023-06-03T17:53:28.738Z,25.91
2023-06-03T17:56:32.441Z,25.14
2023-06-03T17:59:38.674Z,24.77
2023-06-03T18:02:41.210Z,23.91
2023-06-03T18:05:43.929Z,23.51
2023-06-03T18:08:47.044Z,23.17
2023-06-03T18:11:49.674Z,22.82
2023-06-03T18:14:52.228Z,22.52
2023-06-03T18:17:56.068Z,22.14
2023-06-03T18:20:58.850Z,21.83
2023-06-03T18:24:01.473Z,21.64
2023-06-03T18:27:04.088Z,21.57
2023-06-03T18:30:08.931Z,21.21
2023-06-03T18:33:11.504Z,21.05
2023-06-03T18:36:14.539Z,20.79
2023-06-03T18:39:17.544Z,20.31
2023-06-03T18:42:20.035Z,20.12
2023-06-03T18:45:23.275Z,19.85
2023-06-03T18:48:26.010Z,19.88
2023-06-03T18:51:28.640Z,19.67
2023-06-03T18:54:31.620Z,19.59
2023-06-03T18:57:35.538Z,19.43
2023-06-03T19:00:38.927Z,19.21
2023-06-03T19:06:44.925Z,19.04
2023-06-03T19:09:47.563Z,18.90
2023-06-03T19:12:52.963Z,18.79
2023-06-03T19:15:55.520Z,18.55
2023-06-03T19:18:58.108Z,18.38
2023-06-03T19:22:00.752Z,18.32
2023-06-03T19:25:03.537Z,18.23
2023-06-03T19:28:06.281Z,18.07
2023-06-03T19:31:08.954Z,18.01
2023-06-03T19:34:12.231Z,17.84
2023-06-03T19:37:14.812Z,17.74
2023-06-03T19:40:17.497Z,17.64
2023-06-03T19:43:20.026Z,17.42
2023-06-03T19:46:22.948Z,17.32
2023-06-03T19:49:26.244Z,17.29
2023-06-03T19:52:29.716Z,17.03
2023-06-03T19:55:32.321Z,16.93
2023-06-03T19:58:35.008Z,16.89
2023-06-03T20:01:37.689Z,16.75
2023-06-03T20:04:40.586Z,16.86
2023-06-03T20:07:43.334Z,16.67
2023-06-03T20:10:46.223Z,16.59
2023-06-03T20:13:48.725Z,16.46
2023-06-03T20:16:51.646Z,16.52
2023-06-03T20:19:54.298Z,16.51
2023-06-03T20:22:59.068Z,16.52
2023-06-03T20:26:03.066Z,16.55
2023-06-03T20:29:05.816Z,16.42
2023-06-03T20:32:08.923Z,16.43
2023-06-03T20:35:11.949Z,16.44
2023-06-03T20:38:14.684Z,16.36
2023-06-03T20:41:17.248Z,16.31
2023-06-03T20:44:19.866Z,16.31
2023-06-03T20:47:22.459Z,16.29
2023-06-03T20:50:25.096Z,16.19
2023-06-03T20:53:27.593Z,16.11
2023-06-03T20:56:30.081Z,16.00
2023-06-03T20:59:34.084Z,15.95
2023-06-03T21:02:36.661Z,15.93
2023-06-03T21:05:39.212Z,15.85
2023-06-03T21:08:41.842Z,15.80
2023-06-03T21:11:44.429Z,15.68
2023-06-03T21:14:51.099Z,15.45
2023-06-03T21:17:53.666Z,15.10
2023-06-03T21:20:56.257Z,14.97
2023-06-03T21:23:58.834Z,14.90
2023-06-03T21:27:01.573Z,14.79
2023-06-03T21:30:04.479Z,14.81
2023-06-03T21:33:07.164Z,14.71
2023-06-03T21:36:09.712Z,14.67
2023-06-03T21:39:12.229Z,14.65
2023-06-03T21:42:16.086Z,14.63
2023-06-03T21:45:18.688Z,14.63
2023-06-03T21:48:21.553Z,14.62
2023-06-03T21:51:25.810Z,14.66
2023-06-03T21:54:28.403Z,14.58
2023-06-03T21:57:32.112Z,14.54
2023-06-03T22:00:34.592Z,14.51
2023-06-03T22:03:37.083Z,14.49
2023-06-03T22:06:39.616Z,14.48
2023-06-03T22:09:42.387Z,14.38
2023-06-03T22:12:44.987Z,14.34
2023-06-03T22:15:47.633Z,14.30
2023-06-03T22:18:50.211Z,14.15
2023-06-03T22:21:52.994Z,14.11
2023-06-03T22:24:56.036Z,14.04
2023-06-03T22:27:58.589Z,13.94
2023-06-03T22:31:01.686Z,13.89
2023-06-03T22:34:04.892Z,13.76
2023-06-03T22:37:07.619Z,13.60
2023-06-03T22:40:11.125Z,13.50
2023-06-03T22:43:13.743Z,13.43
2023-06-03T22:46:16.344Z,13.37
2023-06-03T22:49:19.242Z,13.34
2023-06-03T22:52:21.734Z,13.29
2023-06-03T22:55:24.979Z,13.31
2023-06-03T22:58:27.536Z,13.30
2023-06-03T23:01:30.225Z,13.21
2023-06-03T23:04:32.763Z,13.27
2023-06-03T23:07:35.534Z,13.21
2023-06-03T23:10:38.065Z,13.24
2023-06-03T23:13:42.189Z,13.19
2023-06-03T23:16:44.753Z,13.16
2023-06-03T23:19:47.338Z,13.19
2023-06-03T23:22:49.924Z,13.15
2023-06-03T23:25:52.569Z,13.13
2023-06-03T23:28:55.177Z,13.13
2023-06-03T23:31:57.838Z,13.14
2023-06-03T23:35:00.450Z,13.14
2023-06-03T23:38:02.963Z,13.03
2023-06-03T23:41:06.627Z,12.97
2023-06-03T23:44:09.588Z,12.94
2023-06-03T23:47:12.203Z,12.98
2023-06-03T23:50:14.736Z,12.85
2023-06-03T23:53:17.228Z,12.93
2023-06-03T23:56:19.843Z,12.94
2023-06-03T23:59:22.417Z,12.93
